createdAt,value
2018-08-16T00:01:46.430Z,88.60
2018-08-16T00:04:20.429Z,87.50
2018-08-16T00:06:54.374Z,86.90
2018-08-16T00:09:28.368Z,86.90
2018-08-16T00:12:02.705Z,88.20
2018-08-16T00:14:36.543Z,87.60
2018-08-16T00:17:11.008Z,87.50
2018-08-16T00:19:45.044Z,87.50
2018-08-16T00:22:19.495Z,87.30
2018-08-16T00:24:53.777Z,87.90
2018-08-16T00:27:27.847Z,87.70
2018-08-16T00:30:01.740Z,87.80
2018-08-16T00:32:36.143Z,88.00
2018-08-16T00:35:10.159Z,87.40
2018-08-16T00:37:44.798Z,87.60
2018-08-16T00:40:18.698Z,87.60
2018-08-16T00:42:52.984Z,87.80
2018-08-16T00:45:26.944Z,87.80
2018-08-16T00:48:01.027Z,88.00
2018-08-16T00:50:34.911Z,87.60
2018-08-16T00:53:08.704Z,87.10
2018-08-16T00:55:42.744Z,87.80
2018-08-16T00:58:16.964Z,88.10
2018-08-16T01:00:50.959Z,88.00
2018-08-16T01:03:24.878Z,86.80
2018-08-16T01:05:58.774Z,87.60
2018-08-16T01:08:32.903Z,88.10
2018-08-16T01:11:07.096Z,87.50
2018-08-16T01:13:41.319Z,88.00
2018-08-16T01:16:15.305Z,87.90
2018-08-16T01:18:49.369Z,88.20
2018-08-16T01:21:23.633Z,88.90
2018-08-16T01:23:57.462Z,89.10
2018-08-16T01:26:31.475Z,90.00
2018-08-16T01:29:05.508Z,88.90
2018-08-16T01:31:39.520Z,88.90
2018-08-16T01:34:16.718Z,88.70
2018-08-16T01:36:50.738Z,89.30
2018-08-16T01:39:25.238Z,89.10
2018-08-16T01:41:59.292Z,88.90
2018-08-16T01:44:33.236Z,88.10
2018-08-16T01:47:07.274Z,87.80
2018-08-16T01:49:41.209Z,88.30
2018-08-16T01:52:15.152Z,88.10
2018-08-16T01:54:48.934Z,88.00
2018-08-16T01:57:23.019Z,88.50
2018-08-16T01:59:57.203Z,88.20
2018-08-16T02:02:31.083Z,87.50
2018-08-16T02:05:06.010Z,87.40
2018-08-16T02:07:39.879Z,86.90
2018-08-16T02:10:13.881Z,86.90
2018-08-16T02:12:47.723Z,86.90
2018-08-16T02:15:22.098Z,88.10
2018-08-16T02:17:56.094Z,88.40
2018-08-16T02:20:29.939Z,89.30
2018-08-16T02:23:04.072Z,88.90
2018-08-16T02:25:37.974Z,89.60
2018-08-16T02:28:11.829Z,89.80
2018-08-16T02:30:45.827Z,89.10
2018-08-16T02:33:20.089Z,89.00
2018-08-16T02:35:53.945Z,89.40
2018-08-16T02:38:27.988Z,89.10
2018-08-16T02:41:02.081Z,88.90
2018-08-16T02:43:35.945Z,89.60
2018-08-16T02:46:10.084Z,90.00
2018-08-16T02:48:43.973Z,90.20
2018-08-16T02:51:18.141Z,90.10
2018-08-16T02:53:52.144Z,90.20
2018-08-16T02:56:26.363Z,90.20
2018-08-16T02:59:06.961Z,90.20
2018-08-16T03:01:41.143Z,90.00
2018-08-16T03:04:16.189Z,90.30
2018-08-16T03:06:50.133Z,90.20
2018-08-16T03:09:24.297Z,90.00
2018-08-16T03:11:58.505Z,90.40
2018-08-16T03:14:32.397Z,90.40
2018-08-16T03:17:06.232Z,90.40
2018-08-16T03:19:40.601Z,90.30
2018-08-16T03:22:14.431Z,90.30
2018-08-16T03:24:48.206Z,90.50
2018-08-16T03:27:22.137Z,90.50
2018-08-16T03:29:56.187Z,90.60
2018-08-16T03:32:36.704Z,90.50
2018-08-16T03:35:11.160Z,90.60
2018-08-16T03:37:45.178Z,90.70
2018-08-16T03:40:19.212Z,90.80
2018-08-16T03:42:53.172Z,91.00
2018-08-16T03:45:27.613Z,91.10
2018-08-16T03:48:01.779Z,91.10
2018-08-16T03:50:35.729Z,91.30
2018-08-16T03:53:09.949Z,91.20
2018-08-16T03:55:43.968Z,91.40
2018-08-16T03:58:17.832Z,91.60
2018-08-16T04:00:51.692Z,91.70
2018-08-16T04:03:25.569Z,91.90
2018-08-16T04:05:59.494Z,91.90
2018-08-16T04:08:33.471Z,91.60
2018-08-16T04:11:07.807Z,91.80
2018-08-16T04:13:41.740Z,91.80
2018-08-16T04:16:15.573Z,91.90
2018-08-16T04:18:49.577Z,91.90
2018-08-16T04:21:23.644Z,92.10
2018-08-16T04:23:57.514Z,92.10
2018-08-16T04:26:31.519Z,92.30
2018-08-16T04:29:05.528Z,92.30
2018-08-16T04:31:39.343Z,92.40
2018-08-16T04:34:13.160Z,92.50
2018-08-16T04:36:47.191Z,92.70
2018-08-16T04:39:21.098Z,92.80
2018-08-16T04:41:54.970Z,92.80
2018-08-16T04:44:28.911Z,92.90
2018-08-16T04:47:03.097Z,93.10
2018-08-16T04:49:37.234Z,93.30
2018-08-16T04:52:11.208Z,93.50
2018-08-16T04:54:44.983Z,93.50
2018-08-16T04:57:19.032Z,93.60
2018-08-16T04:59:53.583Z,93.70
2018-08-16T05:02:27.444Z,93.80
2018-08-16T05:05:01.574Z,94.10
2018-08-16T05:07:36.009Z,94.00
2018-08-16T05:10:10.778Z,94.10
2018-08-16T05:12:44.994Z,94.00
2018-08-16T05:15:18.942Z,94.00
2018-08-16T05:17:53.162Z,94.40
2018-08-16T05:20:27.343Z,94.20
2018-08-16T05:23:01.228Z,94.10
2018-08-16T05:25:35.148Z,94.00
2018-08-16T05:28:09.120Z,94.00
2018-08-16T05:30:43.528Z,94.00
2018-08-16T05:33:17.643Z,93.90
2018-08-16T05:35:51.809Z,93.80
2018-08-16T05:38:25.959Z,93.80
2018-08-16T05:40:59.913Z,93.60
2018-08-16T05:43:34.151Z,93.50
2018-08-16T05:46:08.357Z,93.60
2018-08-16T05:48:42.364Z,93.40
2018-08-16T05:51:16.204Z,93.10
2018-08-16T05:53:50.109Z,92.90
2018-08-16T05:56:24.100Z,92.90
2018-08-16T05:58:58.347Z,92.90
2018-08-16T06:01:32.783Z,92.50
2018-08-16T06:04:06.993Z,92.10
2018-08-16T06:06:41.378Z,92.00
2018-08-16T06:09:15.497Z,92.00
2018-08-16T06:11:49.438Z,91.70
2018-08-16T06:14:23.509Z,91.40
2018-08-16T06:16:57.545Z,90.40
2018-08-16T06:19:31.529Z,89.90
2018-08-16T06:22:05.632Z,88.50
2018-08-16T06:24:39.682Z,87.60
2018-08-16T06:27:13.679Z,87.90
2018-08-16T06:29:48.053Z,87.20
2018-08-16T06:32:21.919Z,86.90
2018-08-16T06:34:56.208Z,85.90
2018-08-16T06:37:30.169Z,85.80
2018-08-16T06:40:06.288Z,84.70
2018-08-16T06:42:40.598Z,84.00
2018-08-16T06:45:14.695Z,84.90
2018-08-16T06:47:48.815Z,85.20
2018-08-16T06:50:22.792Z,83.40
2018-08-16T06:52:56.850Z,81.60
2018-08-16T06:55:30.898Z,80.30
2018-08-16T06:58:04.884Z,80.00
2018-08-16T07:00:39.709Z,79.60
2018-08-16T07:03:13.657Z,79.00
2018-08-16T07:05:48.623Z,79.00
2018-08-16T07:08:23.239Z,78.80
2018-08-16T07:10:57.119Z,79.40
2018-08-16T07:13:31.394Z,78.70
2018-08-16T07:16:05.238Z,79.30
2018-08-16T07:18:39.424Z,77.60
2018-08-16T07:21:13.634Z,77.40
2018-08-16T07:23:47.519Z,74.90
2018-08-16T07:26:21.779Z,74.40
2018-08-16T07:28:55.669Z,73.80
2018-08-16T07:31:29.687Z,74.10
2018-08-16T07:34:03.746Z,73.60
2018-08-16T07:36:38.608Z,73.60
2018-08-16T07:39:12.606Z,75.10
2018-08-16T07:41:46.684Z,73.10
2018-08-16T07:44:20.585Z,73.00
2018-08-16T07:46:54.440Z,71.90
2018-08-16T07:49:28.894Z,71.50
2018-08-16T07:52:02.965Z,70.60
2018-08-16T07:54:37.083Z,70.10
2018-08-16T07:57:11.444Z,69.90
2018-08-16T07:59:45.568Z,68.60
2018-08-16T08:02:19.856Z,68.50
2018-08-16T08:04:53.689Z,69.00
2018-08-16T08:07:27.905Z,67.90
2018-08-16T08:10:01.767Z,67.50
2018-08-16T08:12:36.298Z,67.10
2018-08-16T08:15:12.910Z,67.40
2018-08-16T08:17:46.890Z,67.20
2018-08-16T08:23:01.400Z,67.10
2018-08-16T08:25:35.385Z,66.30
2018-08-16T08:28:09.223Z,65.70
2018-08-16T08:30:43.254Z,65.60
2018-08-16T08:33:17.234Z,64.90
2018-08-16T08:36:03.105Z,65.90
2018-08-16T08:38:37.334Z,65.90
2018-08-16T08:41:11.957Z,63.80
2018-08-16T08:43:57.464Z,62.90
2018-08-16T08:46:31.463Z,63.90
2018-08-16T08:49:05.594Z,62.10
2018-08-16T08:51:40.095Z,61.60
2018-08-16T08:54:33.903Z,61.10
2018-08-16T08:57:19.409Z,61.40
2018-08-16T08:59:53.515Z,60.30
2018-08-16T09:02:27.702Z,60.20
2018-08-16T09:05:01.690Z,61.20
2018-08-16T09:07:35.631Z,60.40
2018-08-16T09:11:19.519Z,60.10
2018-08-16T09:14:06.338Z,60.10
2018-08-16T09:16:41.241Z,60.90
2018-08-16T09:19:15.409Z,61.40
2018-08-16T09:21:49.779Z,59.60
2018-08-16T09:24:23.940Z,59.10
2018-08-16T09:26:57.800Z,59.30
2018-08-16T09:29:57.882Z,59.40
2018-08-16T09:32:43.992Z,58.80
2018-08-16T09:35:18.348Z,57.90
2018-08-16T09:37:52.534Z,58.50
2018-08-16T09:40:26.752Z,57.90
2018-08-16T09:43:01.064Z,57.40
2018-08-16T09:46:50.392Z,57.20
2018-08-16T09:49:24.700Z,57.00
2018-08-16T09:51:59.025Z,57.20
2018-08-16T09:54:33.114Z,57.10
2018-08-16T09:57:08.195Z,57.00
2018-08-16T09:59:42.100Z,56.30
2018-08-16T10:02:17.223Z,57.70
2018-08-16T10:04:51.515Z,57.10
2018-08-16T10:07:25.478Z,56.40
2018-08-16T10:09:59.423Z,55.40
2018-08-16T10:12:33.433Z,55.70
2018-08-16T10:15:07.693Z,54.70
2018-08-16T10:17:41.640Z,54.10
2018-08-16T10:20:16.332Z,54.40
2018-08-16T10:22:50.155Z,53.90
2018-08-16T10:25:24.109Z,54.70
2018-08-16T10:27:58.218Z,54.40
2018-08-16T10:30:32.243Z,54.70
2018-08-16T10:33:06.270Z,54.90
2018-08-16T10:35:40.283Z,54.20
2018-08-16T10:38:14.468Z,55.10
2018-08-16T10:40:48.611Z,55.80
2018-08-16T10:43:22.988Z,55.00
2018-08-16T10:45:57.275Z,55.10
2018-08-16T10:48:31.538Z,53.50
2018-08-16T10:51:05.777Z,53.50
2018-08-16T10:53:39.698Z,54.20
2018-08-16T10:56:14.179Z,53.20
2018-08-16T10:58:48.352Z,53.70
2018-08-16T11:01:22.584Z,53.20
2018-08-16T11:03:56.839Z,53.30
2018-08-16T11:06:30.870Z,53.60
2018-08-16T11:09:07.585Z,53.80
2018-08-16T11:11:41.588Z,54.20
2018-08-16T11:14:15.760Z,53.00
2018-08-16T11:16:49.723Z,54.40
2018-08-16T11:19:23.663Z,53.50
2018-08-16T11:21:58.052Z,52.60
2018-08-16T11:24:31.848Z,52.40
2018-08-16T11:27:05.809Z,52.50
2018-08-16T11:29:39.844Z,52.30
2018-08-16T11:32:14.503Z,51.20
2018-08-16T11:34:48.652Z,50.50
2018-08-16T11:37:22.585Z,50.60
2018-08-16T11:39:57.445Z,51.10
2018-08-16T11:42:31.365Z,50.90
2018-08-16T11:45:06.659Z,51.20
2018-08-16T11:47:42.004Z,50.40
2018-08-16T11:50:15.900Z,51.40
2018-08-16T11:52:49.883Z,50.30
2018-08-16T11:55:24.340Z,51.30
2018-08-16T11:57:59.334Z,51.80
2018-08-16T12:00:34.083Z,50.70
2018-08-16T12:03:08.629Z,51.80
2018-08-16T12:05:42.722Z,50.30
2018-08-16T12:08:16.669Z,50.20
2018-08-16T12:10:50.898Z,49.90
2018-08-16T12:13:25.633Z,50.00
2018-08-16T12:16:00.126Z,49.80
2018-08-16T12:18:34.303Z,49.00
2018-08-16T12:21:08.186Z,48.10
2018-08-16T12:23:42.210Z,47.30
2018-08-16T12:26:16.155Z,47.50
2018-08-16T12:28:50.950Z,47.10
2018-08-16T12:31:25.092Z,47.80
2018-08-16T12:33:58.874Z,47.80
2018-08-16T12:36:32.711Z,48.20
2018-08-16T12:39:07.043Z,47.90
2018-08-16T12:41:41.057Z,46.60
2018-08-16T12:44:14.996Z,47.40
2018-08-16T12:46:49.079Z,47.40
2018-08-16T12:49:23.090Z,46.60
2018-08-16T12:51:57.198Z,46.10
2018-08-16T12:54:31.270Z,46.00
2018-08-16T12:57:05.453Z,44.90
2018-08-16T12:59:39.316Z,44.80
2018-08-16T13:02:13.909Z,44.70
2018-08-16T13:04:47.645Z,43.80
2018-08-16T13:07:21.572Z,42.80
2018-08-16T13:09:55.398Z,42.80
2018-08-16T13:12:29.558Z,42.30
2018-08-16T13:15:04.248Z,42.30
2018-08-16T13:17:38.958Z,42.30
2018-08-16T13:20:13.077Z,42.10
2018-08-16T13:22:47.153Z,41.80
2018-08-16T13:25:21.139Z,41.70
2018-08-16T13:27:55.216Z,41.10
2018-08-16T13:30:29.192Z,41.50
2018-08-16T13:33:03.168Z,40.60
2018-08-16T13:35:37.218Z,39.70
2018-08-16T13:38:11.281Z,38.60
2018-08-16T13:40:45.380Z,37.20
2018-08-16T13:43:19.310Z,37.10
2018-08-16T13:45:53.351Z,37.30
2018-08-16T13:48:27.535Z,36.40
2018-08-16T13:51:01.458Z,37.30
2018-08-16T13:53:35.374Z,37.70
2018-08-16T13:56:09.801Z,38.00
2018-08-16T13:58:43.640Z,38.30
2018-08-16T14:01:18.252Z,36.20
2018-08-16T14:03:52.374Z,35.90
2018-08-16T14:06:26.225Z,36.40
2018-08-16T14:09:00.328Z,36.20
2018-08-16T14:11:34.368Z,36.60
2018-08-16T14:14:08.815Z,36.80
2018-08-16T14:16:42.562Z,36.50
2018-08-16T14:19:17.265Z,36.60
2018-08-16T14:21:51.338Z,35.80
2018-08-16T14:24:25.432Z,34.90
2018-08-16T14:26:59.407Z,36.00
2018-08-16T14:29:33.224Z,35.80
2018-08-16T14:32:07.550Z,36.30
2018-08-16T14:34:41.412Z,35.80
2018-08-16T14:37:15.412Z,35.90
2018-08-16T14:39:49.394Z,36.90
2018-08-16T14:42:23.168Z,36.40
2018-08-16T14:44:57.114Z,35.80
2018-08-16T14:47:30.954Z,35.50
2018-08-16T14:50:05.855Z,36.40
2018-08-16T14:52:43.080Z,36.40
2018-08-16T14:55:17.434Z,36.50
2018-08-16T14:57:51.583Z,36.10
2018-08-16T15:00:25.589Z,36.50
2018-08-16T15:02:59.858Z,36.50
2018-08-16T15:05:33.856Z,36.50
2018-08-16T15:08:08.135Z,36.50
2018-08-16T15:10:42.234Z,35.80
2018-08-16T15:13:17.079Z,34.10
2018-08-16T15:15:51.154Z,34.00
2018-08-16T15:18:25.198Z,33.20
2018-08-16T15:20:59.283Z,33.30
2018-08-16T15:23:33.251Z,33.20
2018-08-16T15:26:07.428Z,33.30
2018-08-16T15:28:41.620Z,34.20
2018-08-16T15:31:15.735Z,33.50
2018-08-16T15:33:49.533Z,34.10
2018-08-16T15:36:23.489Z,32.60
2018-08-16T15:38:57.309Z,33.00
2018-08-16T15:41:31.266Z,33.50
2018-08-16T15:44:05.953Z,33.80
2018-08-16T15:46:39.888Z,33.60
2018-08-16T15:49:14.069Z,34.20
2018-08-16T15:51:48.454Z,34.60
2018-08-16T15:54:22.473Z,35.60
2018-08-16T15:56:56.598Z,34.70
2018-08-16T15:59:30.814Z,36.10
2018-08-16T16:02:04.834Z,36.70
2018-08-16T16:04:39.054Z,37.20
2018-08-16T16:07:13.297Z,37.70
2018-08-16T16:09:47.208Z,35.80
2018-08-16T16:12:21.109Z,35.50
2018-08-16T16:14:55.278Z,35.20
2018-08-16T16:17:29.342Z,36.00
2018-08-16T16:20:03.944Z,35.70
2018-08-16T16:22:38.148Z,34.10
2018-08-16T16:25:12.149Z,33.90
2018-08-16T16:27:46.248Z,34.20
2018-08-16T16:30:20.005Z,33.50
2018-08-16T16:32:54.223Z,34.80
2018-08-16T16:35:28.182Z,34.20
2018-08-16T16:38:05.146Z,34.50
2018-08-16T16:40:39.148Z,36.30
2018-08-16T16:43:13.389Z,36.20
2018-08-16T16:45:47.629Z,36.00
2018-08-16T16:48:21.749Z,36.70
2018-08-16T16:50:55.624Z,36.70
2018-08-16T16:53:30.064Z,37.50
2018-08-16T16:56:04.612Z,39.20
2018-08-16T16:58:38.942Z,39.10
2018-08-16T17:01:13.173Z,40.20
2018-08-16T17:03:47.228Z,40.40
2018-08-16T17:06:21.459Z,42.10
2018-08-16T17:08:55.742Z,42.60
2018-08-16T17:11:29.682Z,43.00
2018-08-16T17:14:03.872Z,43.90
2018-08-16T17:16:38.000Z,44.40
2018-08-16T17:19:12.049Z,44.90
2018-08-16T17:21:46.284Z,44.80
2018-08-16T17:24:20.637Z,45.20
2018-08-16T17:26:54.589Z,46.00
2018-08-16T17:29:28.893Z,46.50
2018-08-16T17:32:02.783Z,47.00
2018-08-16T17:34:37.160Z,46.20
2018-08-16T17:37:11.298Z,47.00
2018-08-16T17:39:45.325Z,46.50
2018-08-16T17:42:19.353Z,46.70
2018-08-16T17:44:53.559Z,46.70
2018-08-16T17:47:27.751Z,46.90
2018-08-16T17:50:08.584Z,47.50
2018-08-16T17:52:42.663Z,47.60
2018-08-16T17:55:16.809Z,48.30
2018-08-16T17:57:51.055Z,48.30
2018-08-16T18:00:25.128Z,48.30
2018-08-16T18:02:59.184Z,48.70
2018-08-16T18:05:33.763Z,49.60
2018-08-16T18:08:07.760Z,49.50
2018-08-16T18:10:42.968Z,50.20
2018-08-16T18:13:16.909Z,50.80
2018-08-16T18:15:50.930Z,51.40
2018-08-16T18:18:24.864Z,51.80
2018-08-16T18:20:59.264Z,52.20
2018-08-16T18:23:33.228Z,52.70
2018-08-16T18:26:07.174Z,52.60
2018-08-16T18:28:41.679Z,53.10
2018-08-16T18:31:15.690Z,53.30
2018-08-16T18:33:50.338Z,53.90
2018-08-16T18:36:24.449Z,54.40
2018-08-16T18:38:59.096Z,54.90
2018-08-16T18:41:33.345Z,55.10
2018-08-16T18:44:07.824Z,55.50
2018-08-16T18:46:42.034Z,56.20
2018-08-16T18:49:15.970Z,56.90
2018-08-16T18:51:50.124Z,57.50
2018-08-16T18:54:24.433Z,57.40
2018-08-16T18:56:58.480Z,57.80
2018-08-16T18:59:32.458Z,58.10
2018-08-16T19:02:06.622Z,58.60
2018-08-16T19:04:40.843Z,58.70
2018-08-16T19:07:14.731Z,59.90
2018-08-16T19:09:48.960Z,60.40
2018-08-16T19:12:23.504Z,62.40
2018-08-16T19:14:57.675Z,62.20
2018-08-16T19:17:32.075Z,62.60
2018-08-16T19:20:06.748Z,63.00
2018-08-16T19:22:40.739Z,63.30
2018-08-16T19:25:14.665Z,63.90
2018-08-16T19:27:48.850Z,64.80
2018-08-16T19:30:23.230Z,65.70
2018-08-16T19:32:57.843Z,65.80
2018-08-16T19:35:32.444Z,66.10
2018-08-16T19:38:06.529Z,66.00
2018-08-16T19:40:40.589Z,66.30
2018-08-16T19:43:15.019Z,67.30
2018-08-16T19:45:49.233Z,68.00
2018-08-16T19:48:23.178Z,68.40
2018-08-16T19:50:57.249Z,68.30
2018-08-16T19:53:31.288Z,67.70
2018-08-16T19:56:06.171Z,68.00
2018-08-16T19:58:40.005Z,68.50
2018-08-16T20:01:14.589Z,68.60
2018-08-16T20:03:48.728Z,69.80
2018-08-16T20:06:23.024Z,70.70
2018-08-16T20:08:57.852Z,71.60
2018-08-16T20:11:31.759Z,71.50
2018-08-16T20:14:05.623Z,72.10
2018-08-16T20:16:39.503Z,72.00
2018-08-16T20:19:13.958Z,73.00
2018-08-16T20:21:48.299Z,74.00
2018-08-16T20:24:22.184Z,74.20
2018-08-16T20:26:56.222Z,74.60
2018-08-16T20:29:30.077Z,74.40
2018-08-16T20:32:04.512Z,74.50
2018-08-16T20:34:38.568Z,74.70
2018-08-16T20:37:12.483Z,75.60
2018-08-16T20:39:46.534Z,76.20
2018-08-16T20:42:20.496Z,76.30
2018-08-16T20:44:54.321Z,77.10
2018-08-16T20:47:28.524Z,77.40
2018-08-16T20:50:03.163Z,77.60
2018-08-16T20:52:37.538Z,78.00
2018-08-16T20:55:11.599Z,77.20
2018-08-16T20:57:45.803Z,76.90
2018-08-16T21:00:20.001Z,76.80
2018-08-16T21:02:53.953Z,76.90
2018-08-16T21:05:28.335Z,76.50
2018-08-16T21:08:02.399Z,76.70
2018-08-16T21:10:36.462Z,76.90
2018-08-16T21:13:10.358Z,77.10
2018-08-16T21:15:44.432Z,77.60
2018-08-16T21:18:18.338Z,78.20
2018-08-16T21:20:52.498Z,78.20
2018-08-16T21:23:26.224Z,78.60
2018-08-16T21:26:00.085Z,78.70
2018-08-16T21:28:34.283Z,79.10
2018-08-16T21:33:49.138Z,80.00
2018-08-16T21:36:23.773Z,80.10
2018-08-16T21:38:58.283Z,80.10
2018-08-16T21:41:32.617Z,80.60
2018-08-16T21:44:07.301Z,81.00
2018-08-16T21:46:41.214Z,81.10
2018-08-16T21:49:15.277Z,81.60
2018-08-16T21:51:49.323Z,82.20
2018-08-16T21:54:23.277Z,82.50
2018-08-16T21:56:57.288Z,83.10
2018-08-16T21:59:31.628Z,82.70
2018-08-16T22:02:05.951Z,82.80
2018-08-16T22:04:39.853Z,83.60
2018-08-16T22:08:17.060Z,83.60
2018-08-16T22:10:51.158Z,83.70
2018-08-16T22:13:25.040Z,83.80
2018-08-16T22:15:58.939Z,84.30
2018-08-16T22:18:33.303Z,84.90
2018-08-16T22:21:07.932Z,85.00
2018-08-16T22:23:41.906Z,85.60
2018-08-16T22:26:16.080Z,85.50
2018-08-16T22:28:49.937Z,86.00
2018-08-16T22:31:24.099Z,86.30
2018-08-16T22:33:58.321Z,86.50
2018-08-16T22:36:32.453Z,87.10
2018-08-16T22:39:09.077Z,87.40
2018-08-16T22:41:42.948Z,87.80
2018-08-16T22:44:17.147Z,88.10
2018-08-16T22:46:51.043Z,88.40
2018-08-16T22:49:24.975Z,88.80
2018-08-16T22:51:59.027Z,89.10
2018-08-16T22:54:33.058Z,89.40
2018-08-16T22:57:07.137Z,89.80
2018-08-16T22:59:40.961Z,90.10
2018-08-16T23:02:14.867Z,90.30
2018-08-16T23:04:48.918Z,90.40
2018-08-16T23:07:22.757Z,90.50
2018-08-16T23:09:57.991Z,90.60
2018-08-16T23:12:31.746Z,90.60
2018-08-16T23:15:06.796Z,90.50
2018-08-16T23:17:40.908Z,90.60
2018-08-16T23:20:14.633Z,90.50
2018-08-16T23:22:48.618Z,90.50
2018-08-16T23:25:22.519Z,90.40
2018-08-16T23:27:56.466Z,90.40
2018-08-16T23:30:30.164Z,90.40
2018-08-16T23:33:04.446Z,90.40
2018-08-16T23:35:38.723Z,90.40
2018-08-16T23:38:12.718Z,90.40
2018-08-16T23:40:46.564Z,90.70
2018-08-16T23:43:20.664Z,90.80
2018-08-16T23:45:56.044Z,90.90
2018-08-16T23:48:31.340Z,90.80
2018-08-16T23:51:05.425Z,90.80
2018-08-16T23:53:39.888Z,91.00
2018-08-16T23:56:13.708Z,91.20
2018-08-16T23:58:47.637Z,91.60
